Terminal Aerodrome Forecast
Issued by NWS

Home | Current Version | Previous Version | Text Only | Print | Product List | Glossary On
Versions: 1 2 3 4 5 6 7 8 9 10 11 12 13 14 15 16 17 18 19 20 21 22 23 24 25 26 27 28 29 30 31 32 33 34 35 36 37 38 39 40 41 42 43 44 45 46 47 48
000
FTUS42 KMFL 072325
TAFMIA
TAF
KMIA 072325Z 0800/0824 29006KT P6SM FEW070 FEW250
     FM080200 30006KT P6SM SKC
     FM081400 29007KT P6SM FEW025 SCT250
     FM081800 28007KT P6SM SKC
     FM081900 25009G15KT P6SM SCT250=

USA.gov is the U.S. government's official web portal to all federal, state and local government web resources and services.